Logo AVAMET
Benvolgut visitant, si us plau, ingressa Recuperar contrasenya

Benigembla Ajuntament

Dades diàries. Acumulats / Últims 30 dies disponibles

Data Temperatura (°C) Humitat rel. (%) Pressió rel. (hPa) Vent (km/h) Precipitació
Mínima Mitjana Màxima Amplitud
tèrmica
Mínima Mitjana Màxima Mínima Mitjana Màxima Predom. Mitjana Ràfega
màxima
Total
(mm)
Índex-n
Mínima Mitjana Màxima Mínima Mitjana Màxima n
0 a 1
P0 max
mm 5'
Dades mensuals acumulades fins l'últim dia disponible
07/2019 18,9 21,2 26,5 27,2 28,6 33,3 39,2 20,3 15 56 90 1.008 1.013 1.018   5,1 59,5 0,0
Dades anuals acumulades fins l'últim dia disponible
2019 0,7 10,6 26,5 15,7 10,7 21,2 39,2 38,5 15 61 95 994 1.018 1.036   6,7 98,2 507,4
Últims 30 dies disponibles
16-07-2019 19,8     25,4     29,6 9,8 46 60 78 1.014 1.015 1.016 NNW 5,6 43,5 0,0
15-07-2019 20,3     26,4     32,3 12,0 52 67 83 1.010 1.011 1.014 SE 4,3 25,7 0,0
14-07-2019 20,7     25,7     30,3 9,6 40 72 90 1.010 1.011 1.013 SE 4,7 38,6 0,0
13-07-2019 23,8     27,9     34,9 11,1 23 53 83 1.012 1.014 1.015 SE 3,9 24,1 0,0
12-07-2019 21,4     29,4     38,7 17,3 25 41 54 1.013 1.015 1.016 NNW 4,5 27,4 0,0
11-07-2019 19,8     27,1     34,6 14,8 35 49 67 1.013 1.015 1.016 NNW 4,7 27,4 0,0
10-07-2019 18,9     25,3     31,8 12,9 42 59 71 1.013 1.015 1.016 SE 5,0 32,2 0,0
09-07-2019 20,4     25,3     29,9 9,5 36 62 89 1.010 1.012 1.014 NNW 6,4 27,4 0,0
08-07-2019 22,2     26,5     31,2 9,0 39 65 85 1.010 1.011 1.013 SE 3,4 24,1 0,0
07-07-2019 26,5     33,7     39,2 12,7 20 34 71 1.008 1.011 1.014 NNW 7,4 59,5 0,0
06-07-2019 21,7     30,8     38,8 17,1 15 47 84 1.011 1.013 1.016 WNW 6,6 54,7 0,0
01-07-2019 19,1     23,3     28,6 9,5 50 58 66 1.016 1.017 1.018 OSO 4,6 22,5 0,0
30-06-2019 19,4     27,1     34,2 14,8 23 34 56 1.016 1.017 1.018 SSO 4,1 22,5 0,0
29-06-2019 19,6     28,2     37,5 17,9 19 38 51 1.014 1.015 1.017 NW 6,1 27,4 0,0
28-06-2019 19,7     27,4     35,7 16,0 23 47 69 1.015 1.017 1.019 NW 5,1 25,7 0,0
27-06-2019 18,8     25,2     31,8 13,0 43 66 91 1.018 1.020 1.021 NW 5,5 25,7 0,0
26-06-2019 18,9     23,7     29,8 10,9 59 79 92 1.017 1.018 1.020 WNW 6,1 32,2 0,0
25-06-2019 16,4     22,4     28,3 11,9 59 71 90 1.015 1.017 1.018 SE 4,2 25,7 0,0
24-06-2019 17,1     22,9     29,8 12,7 36 57 89 1.013 1.015 1.016 NNW 4,8 35,4 0,0
23-06-2019 15,3     22,9     30,2 14,9 28 54 73 1.014 1.015 1.016 SE 4,8 24,1 0,0
22-06-2019 16,8     22,2     27,4 10,6 51 66 84 1.015 1.017 1.018 SE 5,0 22,5 0,0
21-06-2019 19,2     21,7     25,7 6,5 57 75 89 1.013 1.014 1.017 SE 6,0 32,2 0,0
20-06-2019 17,6     22,2     25,4 7,8 45 66 89 1.011 1.012 1.013 SE 5,0 29,0 0,0
19-06-2019 17,4     25,3     31,7 14,3 28 41 68 1.011 1.013 1.014 NNW 5,8 38,6 0,0
18-06-2019 14,8     23,3     30,1 15,3 30 46 65 1.012 1.015 1.016 NW 5,8 41,8 0,0
17-06-2019 14,9     23,0     29,6 14,7 26 49 80 1.015 1.017 1.019 NW 7,1 33,8 0,0
16-06-2019 15,6     20,2     23,3 7,7 58 68 80 1.018 1.020 1.021 SE 4,3 33,8 0,0
15-06-2019 19,3     23,9     28,3 9,0 28 40 65 1.014 1.016 1.019 NNW 8,9 41,8 0,0
14-06-2019 14,7     21,9     29,0 14,3 34 51 63 1.010 1.012 1.014 NW 6,3 35,4 0,0
13-06-2019 15,9     18,7     21,6 5,7 54 76 92 1.011 1.013 1.015 SE 5,1 32,2 0,0
Últims 13 mesos disponibles
06/2019 10,9 15,9 19,7 22,2 20,3 28,2 37,5 26,6 34 56 79 1.009 1.016 1.022 NW 5,5 51,5 2,2
05/2019 7,8 12,6 20,3 17,9 18,1 23,5 30,8 23,0 47 65 80 1.006 1.016 1.025 NW 5,3 64,4 26,0
04/2019 7,2 10,4 13,9 14,5 13,1 18,9 27,7 20,5 36 68 94 1.000 1.013 1.026 WSW 8,2 85,3 377,0
03/2019 4,5 8,3 15,4 13,5 12,4 18,9 27,1 22,6 30 58 90 1.011 1.023 1.031 WSW 6,4 59,5 90,8
02/2019 2,2 6,1 11,1 11,2 10,9 17,1 23,3 21,1 36 61 82 996 1.026 1.034 WSW 7,2 95,0 0,2
01/2019 0,7 6,0 12,6 10,2 10,7 15,6 20,3 19,6 38 60 82 1.004 1.020 1.032 W 8,3 98,2 5,8
12/2018 4,2 8,2 12,3 12,4 11,2 18,4 24,4 20,2 53 67 91 1.009 1.026 1.032 W 5,3 90,1 37,2
11/2018 5,8 10,3 15,7 13,8 13,2 18,1 23,8 18,0 48 71 93 1.001 1.016 1.024 W 5,1 72,4 189,4
10/2018 7,6 13,5 16,8 17,5 13,8 22,3 28,1 20,5 49 71 86 1.000 1.015 1.026 WNW 5,0 69,2 101,4
09/2018 12,7 18,8 21,5 23,0 22,7 27,8 34,0 21,3 56 75 85 1.013 1.019 1.028 WNW 4,1 43,5 72,2
08/2018 17,9 21,2 23,8 26,2 24,5 31,5 36,3 18,4 42 65 81 1.012 1.017 1.021 WNW 4,7 51,5 16,2
07/2018 17,9 20,5 24,3 26,5 26,4 32,3 36,4 18,5 WNW 5,5 53,1 0,0
06/2018 12,5 17,0 20,9 22,6 21,7 27,9 32,3 19,8 WNW 5,2 43,5 57,2
Tots els anys disponibles
2018 1,3 13,0 24,3 17,6 6,9 22,6 36,4 35,1 42 70 93 1.000 1.019 1.032 WNW 5,8 95,0 795,0
2017 1,2 14,9 25,4 19,9 10,3 25,4 38,9 37,7 WNW 5,4 106,2 226,2
Temperatura (°C)
Humitat relativa (%)
Velocitat del vent i ràfega màxima (km/h)
Direcció del vent (°)
Pressió (hPa)
Precipitació (mm)
Nota sobre les dades: s'avisa a l'usuari de la provisionalitat i no oficialitat d'aquestes dades
Logo AVAMET blanc
Web allotjada a Sollutia
Llicència de Creative CommonsLa web d'AVAMET i els seus continguts estan subjectes a una llicència de
Reconeixement - No Comercial - Compartir igual
Properes estacions: Altea - Club Nàutic d'Altea (Soci), Ares del Maestrat (Ajuntament Soci),      - - - - -      Últimes estacions: Catadau - Urb. Lloma Molina (Inforatge), Ontinyent - El Pilar (Soci), Asp - Poliesportiu (Soci) - - -